Time;durP1;ratioP1;P1;durP2;ratioP2;P2;SDS_P1;SDS_P2;PMS_P1;PMS_P2;Temp;Humidity;BMP_temperature;BMP_pressure;BME280_temperature;BME280_humidity;BME280_pressure;Samples;Min_cycle;Max_cycle;Signal;HPM_P1;HPM_P2
2021/01/22 05:02:15;;;;;;;;;;;9.60;99.90;;;;;;5232829;22;19940;-63
2021/01/22 05:04:41;;;;;;;;;;;9.70;99.90;;;;;;5057517;28;20271;-63
2021/01/22 05:07:08;;;;;;;;;;;9.70;99.90;;;;;;5057411;28;19975;-62
2021/01/22 05:09:34;;;;;;;;;;;9.60;99.90;;;;;;5057171;28;19929;-63
2021/01/22 05:12:00;;;;;;;;;;;9.70;99.90;;;;;;5057335;28;19931;-64
2021/01/22 05:14:27;;;;;;;;;;;9.70;99.90;;;;;;5056634;28;20386;-63
2021/01/22 05:16:59;;;;;;;;;;;9.80;99.90;;;;;;5056974;28;19929;-64
2021/01/22 05:19:26;;;;;;;;;;;9.70;99.90;;;;;;5056899;28;19925;-62
2021/01/22 05:21:52;;;;;;;;;;;9.70;99.90;;;;;;5057053;28;19951;-64
2021/01/22 05:24:22;;;;;;;;;;;9.70;99.90;;;;;;5056835;28;19925;-64
2021/01/22 05:26:57;;;;;;;;;;;9.60;99.90;;;;;;5057020;28;19925;-63
2021/01/22 05:29:23;;;;;;;;;;;9.70;99.90;;;;;;5056313;28;19936;-66
2021/01/22 05:31:49;;;;;;;;;;;9.60;99.90;;;;;;5056894;28;19947;-65
2021/01/22 05:34:15;;;;;;;;;;;9.60;99.90;;;;;;5056745;28;20299;-66
2021/01/22 05:36:42;;;;;;;;;;;9.70;99.90;;;;;;5060102;28;19925;-65
2021/01/22 05:39:17;;;;;;;;;;;9.70;99.90;;;;;;5063883;28;20417;-65
2021/01/22 05:41:49;;;;;;;;;;;9.70;99.90;;;;;;5056871;28;19925;-65
2021/01/22 05:44:19;;;;;;;;;;;9.60;99.90;;;;;;5056870;28;19925;-64
2021/01/22 05:46:59;;;;;;;;;;;9.70;99.90;;;;;;5056676;28;19971;-65
2021/01/22 05:49:25;;;;;;;;;;;9.60;99.90;;;;;;5057276;28;19925;-64
2021/01/22 05:51:52;;;;;;;;;;;9.60;99.90;;;;;;5056811;28;19940;-63
2021/01/22 05:54:37;;;;;;;;;;;9.60;99.90;;;;;;5056369;28;19925;-63
2021/01/22 05:57:04;;;;;;;;;;;9.60;99.90;;;;;;5056532;28;19928;-64
2021/01/22 05:59:30;;;;;;;;;;;9.60;99.90;;;;;;5056070;28;19924;-62
2021/01/22 06:01:56;;;;;;;;;;;9.60;99.90;;;;;;5055878;28;20015;-62
2021/01/22 06:04:22;;;;;;;;;;;9.60;99.90;;;;;;5056076;28;19925;-63
2021/01/22 06:06:49;;;;;;;;;;;9.60;99.90;;;;;;5056082;28;19924;-62
2021/01/22 06:09:30;;;;;;;;;;;9.60;99.90;;;;;;5056191;28;19924;-63
2021/01/22 06:11:58;;;;;;;;;;;9.70;99.90;;;;;;5055952;28;19931;-63
2021/01/22 06:14:24;;;;;;;;;;;9.50;99.90;;;;;;5055616;28;19948;-65
2021/01/22 06:16:51;;;;;;;;;;;9.60;99.90;;;;;;5056041;28;19932;-63
2021/01/22 06:19:18;;;;;;;;;;;9.60;99.90;;;;;;5055723;28;19925;-65
2021/01/22 06:21:48;;;;;;;;;;;9.60;99.90;;;;;;5055317;28;19990;-65
2021/01/22 06:24:14;;;;;;;;;;;9.70;99.90;;;;;;5055399;28;20393;-65
2021/01/22 06:26:41;;;;;;;;;;;9.70;99.90;;;;;;5055379;28;19932;-65
2021/01/22 06:29:08;;;;;;;;;;;9.60;99.90;;;;;;5055440;28;19925;-65
2021/01/22 06:31:34;;;;;;;;;;;9.60;99.90;;;;;;5054194;28;19925;-64
2021/01/22 06:34:00;;;;;;;;;;;9.70;99.90;;;;;;5055699;28;19924;-64
2021/01/22 06:36:27;;;;;;;;;;;9.70;99.90;;;;;;5055406;28;19925;-64
2021/01/22 06:38:53;;;;;;;;;;;9.70;99.90;;;;;;5055477;28;19929;-64
2021/01/22 06:41:23;;;;;;;;;;;9.70;99.90;;;;;;5055017;28;19925;-65
2021/01/22 06:43:50;;;;;;;;;;;9.70;99.90;;;;;;5054823;28;19947;-64
2021/01/22 06:46:17;;;;;;;;;;;9.70;99.90;;;;;;5055170;28;19925;-64
2021/01/22 06:48:51;;;;;;;;;;;9.80;99.90;;;;;;5055088;28;20303;-65
2021/01/22 06:51:17;;;;;;;;;;;9.80;99.90;;;;;;5056066;28;20245;-66
2021/01/22 06:53:58;;;;;;;;;;;9.80;99.90;;;;;;5055411;28;19929;-65
2021/01/22 06:56:24;;;;;;;;;;;9.70;99.90;;;;;;5067138;22;19928;-62
2021/01/22 06:58:51;;;;;;;;;;;9.80;99.90;;;;;;5053787;28;20291;-61
2021/01/22 07:01:33;;;;;;;;;;;9.80;99.90;;;;;;5053694;28;19925;-62
2021/01/22 07:03:59;;;;;;;;;;;9.80;99.90;;;;;;5053534;28;20019;-62
2021/01/22 07:06:48;;;;;;;;;;;9.80;99.90;;;;;;5053706;28;19925;-62
2021/01/22 07:09:15;;;;;;;;;;;9.80;99.90;;;;;;5053843;28;20387;-62
2021/01/22 07:11:59;;;;;;;;;;;9.70;99.90;;;;;;5053781;28;19924;-62
2021/01/22 07:14:36;;;;;;;;;;;9.70;99.90;;;;;;5054055;28;20032;-62
2021/01/22 07:17:03;;;;;;;;;;;9.70;99.90;;;;;;5053256;28;20398;-62
2021/01/22 07:19:31;;;;;;;;;;;9.80;99.90;;;;;;5053735;28;19934;-62
2021/01/22 07:21:58;;;;;;;;;;;9.80;99.90;;;;;;5053602;28;19929;-62
2021/01/22 07:24:25;;;;;;;;;;;9.80;99.90;;;;;;5053646;28;20299;-62
2021/01/22 07:26:53;;;;;;;;;;;9.70;99.90;;;;;;5053556;28;19946;-62
2021/01/22 07:29:21;;;;;;;;;;;9.90;99.90;;;;;;5053575;28;19925;-62
2021/01/22 07:31:56;;;;;;;;;;;10.00;99.90;;;;;;5053612;28;19932;-62
2021/01/22 07:34:41;;;;;;;;;;;10.00;99.90;;;;;;5053536;28;19924;-62
2021/01/22 07:37:07;;;;;;;;;;;10.00;99.90;;;;;;5053431;28;19925;-62
2021/01/22 07:39:34;;;;;;;;;;;10.00;99.90;;;;;;5053493;28;19932;-63
2021/01/22 07:42:04;;;;;;;;;;;10.10;99.90;;;;;;5054048;28;19931;-63
2021/01/22 07:44:30;;;;;;;;;;;10.40;99.90;;;;;;5057585;28;19975;-63
2021/01/22 07:46:57;;;;;;;;;;;10.50;99.90;;;;;;5057456;28;19931;-63
2021/01/22 07:49:23;;;;;;;;;;;10.70;99.90;;;;;;5057373;28;19929;-63
2021/01/22 07:51:49;;;;;;;;;;;11.00;99.90;;;;;;5057321;28;20280;-63
2021/01/22 07:54:15;;;;;;;;;;;11.30;99.90;;;;;;5057511;28;20330;-62
2021/01/22 07:56:42;;;;;;;;;;;11.80;99.90;;;;;;5057608;28;19936;-63
2021/01/22 07:59:10;;;;;;;;;;;12.60;99.90;;;;;;5057339;28;19928;-63
2021/01/22 08:01:36;;;;;;;;;;;12.90;99.90;;;;;;5056910;28;20322;-63
2021/01/22 08:04:03;;;;;;;;;;;13.10;99.90;;;;;;5058048;28;20019;-62
2021/01/22 08:06:29;;;;;;;;;;;13.50;99.90;;;;;;5058081;28;19979;-63
2021/01/22 08:09:05;;;;;;;;;;;13.90;99.90;;;;;;5056877;28;19971;-63
2021/01/22 08:11:31;;;;;;;;;;;14.30;99.90;;;;;;5056844;28;19924;-63
2021/01/22 08:13:57;;;;;;;;;;;14.80;99.90;;;;;;5056548;28;20380;-63
2021/01/22 08:16:23;;;;;;;;;;;15.50;99.90;;;;;;5056411;28;20406;-64
2021/01/22 08:18:49;;;;;;;;;;;16.10;99.90;;;;;;5056823;28;19932;-63
2021/01/22 08:21:16;;;;;;;;;;;16.30;98.90;;;;;;5056994;28;19924;-63
2021/01/22 08:23:43;;;;;;;;;;;16.30;98.70;;;;;;5057408;28;19925;-65
2021/01/22 08:26:09;;;;;;;;;;;16.50;99.00;;;;;;5056541;28;20067;-64
2021/01/22 08:28:36;;;;;;;;;;;16.60;99.80;;;;;;5057560;28;20022;-64
2021/01/22 08:31:02;;;;;;;;;;;17.20;97.70;;;;;;5056938;28;19931;-64
2021/01/22 08:33:28;;;;;;;;;;;17.60;98.00;;;;;;5056064;28;19924;-64
2021/01/22 08:35:54;;;;;;;;;;;17.90;94.70;;;;;;5056129;28;19925;-62
2021/01/22 08:38:23;;;;;;;;;;;16.60;94.00;;;;;;5056061;28;20291;-63
2021/01/22 08:40:49;;;;;;;;;;;16.90;95.50;;;;;;5056310;28;19964;-63
2021/01/22 08:43:15;;;;;;;;;;;17.00;94.50;;;;;;5056408;28;19931;-62
2021/01/22 08:45:41;;;;;;;;;;;16.90;94.30;;;;;;5056772;28;19925;-62
2021/01/22 08:48:08;;;;;;;;;;;16.80;94.30;;;;;;5056441;28;19947;-63
2021/01/22 08:50:34;;;;;;;;;;;17.00;94.30;;;;;;5056473;28;19932;-62
2021/01/22 08:53:04;;;;;;;;;;;17.40;93.70;;;;;;5055535;28;19995;-63
2021/01/22 08:55:31;;;;;;;;;;;17.50;93.30;;;;;;5055749;28;20231;-63
2021/01/22 08:58:00;;;;;;;;;;;17.00;93.40;;;;;;5056166;28;19929;-63
2021/01/22 09:00:26;;;;;;;;;;;17.20;93.90;;;;;;5055953;28;19924;-63
2021/01/22 09:02:52;;;;;;;;;;;17.50;92.70;;;;;;5055756;28;20004;-63
2021/01/22 09:05:19;;;;;;;;;;;17.00;93.10;;;;;;5055811;28;19936;-63
2021/01/22 09:07:45;;;;;;;;;;;16.60;93.50;;;;;;5055885;28;19925;-63
2021/01/22 09:10:27;;;;;;;;;;;15.60;94.60;;;;;;5055843;28;19947;-63
2021/01/22 09:12:54;;;;;;;;;;;14.90;96.10;;;;;;5056174;28;19952;-63
2021/01/22 09:15:21;;;;;;;;;;;15.10;97.10;;;;;;5055588;28;19924;-63
2021/01/22 09:17:49;;;;;;;;;;;14.90;97.00;;;;;;5055665;28;19929;-62
2021/01/22 09:20:16;;;;;;;;;;;14.90;97.20;;;;;;5055548;28;19924;-63
2021/01/22 09:22:43;;;;;;;;;;;14.70;97.40;;;;;;5055495;28;19924;-62
2021/01/22 09:25:11;;;;;;;;;;;14.00;98.70;;;;;;5055439;28;19925;-62
2021/01/22 09:27:38;;;;;;;;;;;13.90;99.30;;;;;;5055516;28;19932;-63
2021/01/22 09:30:06;;;;;;;;;;;13.80;99.90;;;;;;5055752;28;20019;-62
2021/01/22 09:32:32;;;;;;;;;;;13.60;99.90;;;;;;5055519;28;19931;-62
2021/01/22 09:34:58;;;;;;;;;;;13.50;99.90;;;;;;5055461;28;19975;-62
2021/01/22 09:37:24;;;;;;;;;;;13.50;99.90;;;;;;5055438;28;19925;-62
2021/01/22 09:39:50;;;;;;;;;;;13.70;99.90;;;;;;5055866;28;19925;-62
2021/01/22 09:42:16;;;;;;;;;;;13.90;99.90;;;;;;5055631;28;19982;-62
2021/01/22 09:44:43;;;;;;;;;;;13.70;99.90;;;;;;5055187;28;19925;-62
2021/01/22 09:47:09;;;;;;;;;;;13.70;99.90;;;;;;5056303;28;19959;-62
2021/01/22 09:49:35;;;;;;;;;;;13.60;99.90;;;;;;5055377;28;19943;-62
2021/01/22 09:52:01;;;;;;;;;;;13.40;99.90;;;;;;5055709;28;19925;-62
2021/01/22 09:54:27;;;;;;;;;;;13.30;99.90;;;;;;5055813;28;19944;-62
2021/01/22 09:56:53;;;;;;;;;;;13.10;99.90;;;;;;5056348;28;19925;-62
2021/01/22 09:59:19;;;;;;;;;;;13.00;99.90;;;;;;5058147;28;19925;-63
2021/01/22 10:01:45;;;;;;;;;;;13.00;99.90;;;;;;5062353;28;19924;-64
2021/01/22 10:04:12;;;;;;;;;;;12.90;99.90;;;;;;5054897;28;19924;-61
2021/01/22 10:06:38;;;;;;;;;;;12.90;99.90;;;;;;5054297;28;19928;-62
2021/01/22 10:09:09;;;;;;;;;;;12.80;99.90;;;;;;5055131;28;19924;-62
2021/01/22 10:11:35;;;;;;;;;;;12.80;99.90;;;;;;5054769;28;20307;-62
2021/01/22 10:14:01;;;;;;;;;;;12.70;99.90;;;;;;5054542;28;20372;-62
2021/01/22 10:16:27;;;;;;;;;;;12.70;99.90;;;;;;5054507;28;19924;-62
2021/01/22 10:18:54;;;;;;;;;;;12.70;99.90;;;;;;5054692;28;20034;-62
2021/01/22 10:21:21;;;;;;;;;;;12.60;99.90;;;;;;5054650;28;19941;-62
2021/01/22 10:23:48;;;;;;;;;;;12.70;99.90;;;;;;5055229;28;19940;-62
2021/01/22 10:26:14;;;;;;;;;;;12.70;99.90;;;;;;5054263;28;20341;-61
2021/01/22 10:28:40;;;;;;;;;;;12.70;99.90;;;;;;5054632;28;19928;-62
2021/01/22 10:31:06;;;;;;;;;;;12.70;99.90;;;;;;5054798;28;19929;-62
2021/01/22 10:33:32;;;;;;;;;;;12.90;99.90;;;;;;5054829;28;19925;-62
2021/01/22 10:35:58;;;;;;;;;;;12.90;99.90;;;;;;5054362;28;20407;-62
2021/01/22 10:38:26;;;;;;;;;;;12.90;99.90;;;;;;5054795;28;20351;-62
2021/01/22 10:40:53;;;;;;;;;;;13.00;99.90;;;;;;5055267;28;19925;-63
2021/01/22 10:43:19;;;;;;;;;;;13.00;99.90;;;;;;5054932;28;19928;-61
2021/01/22 10:45:45;;;;;;;;;;;13.10;99.90;;;;;;5054391;28;19924;-63
2021/01/22 10:48:11;;;;;;;;;;;13.10;99.90;;;;;;5054464;28;20329;-62
2021/01/22 10:50:37;;;;;;;;;;;13.20;99.90;;;;;;5054510;28;19925;-62
2021/01/22 10:53:03;;;;;;;;;;;13.20;99.90;;;;;;5054070;28;19975;-62
2021/01/22 10:55:30;;;;;;;;;;;13.40;99.90;;;;;;5053927;28;19976;-62
2021/01/22 10:57:56;;;;;;;;;;;13.50;99.90;;;;;;5054037;28;19925;-62
2021/01/22 11:00:22;;;;;;;;;;;13.60;99.90;;;;;;5054406;28;19969;-62
2021/01/22 11:02:48;;;;;;;;;;;13.80;99.90;;;;;;5054418;28;20406;-62
2021/01/22 11:05:14;;;;;;;;;;;13.80;99.90;;;;;;5054018;28;19925;-62
2021/01/22 11:07:40;;;;;;;;;;;13.80;99.90;;;;;;5054113;28;19931;-62
2021/01/22 11:10:07;;;;;;;;;;;13.90;99.90;;;;;;5054211;28;19928;-62
2021/01/22 11:12:34;;;;;;;;;;;13.80;99.90;;;;;;5054228;28;19925;-62
2021/01/22 11:15:00;;;;;;;;;;;13.90;99.90;;;;;;5053944;28;19929;-63
2021/01/22 11:17:26;;;;;;;;;;;14.10;99.90;;;;;;5053773;28;19935;-63
2021/01/22 11:19:52;;;;;;;;;;;14.20;99.90;;;;;;5054031;28;19929;-63
2021/01/22 11:22:18;;;;;;;;;;;14.30;99.90;;;;;;5053489;28;20398;-63
2021/01/22 11:24:44;;;;;;;;;;;14.40;99.90;;;;;;5053296;28;20384;-63
2021/01/22 11:27:10;;;;;;;;;;;14.30;99.90;;;;;;5053575;28;20402;-63
2021/01/22 11:29:38;;;;;;;;;;;14.30;99.90;;;;;;5053715;28;19925;-63
2021/01/22 11:32:04;;;;;;;;;;;14.20;99.90;;;;;;5053794;28;19932;-63
2021/01/22 11:34:31;;;;;;;;;;;14.20;99.90;;;;;;5053741;28;19925;-65
2021/01/22 11:36:57;;;;;;;;;;;14.20;99.90;;;;;;5053507;28;20303;-62
2021/01/22 11:39:23;;;;;;;;;;;14.10;99.90;;;;;;5053823;28;19931;-64
2021/01/22 11:41:49;;;;;;;;;;;14.00;99.90;;;;;;5053714;28;19947;-64
2021/01/22 11:44:15;;;;;;;;;;;13.90;99.90;;;;;;5053758;28;19924;-62
2021/01/22 11:46:42;;;;;;;;;;;13.90;99.90;;;;;;5054523;28;19928;-62
2021/01/22 11:49:09;;;;;;;;;;;13.90;99.90;;;;;;5054776;28;19978;-63
2021/01/22 11:51:35;;;;;;;;;;;13.90;99.90;;;;;;5054185;28;19931;-63
2021/01/22 11:54:01;;;;;;;;;;;14.00;99.90;;;;;;5055469;28;20080;-64
2021/01/22 11:56:27;;;;;;;;;;;14.00;99.90;;;;;;5059896;28;20007;-63
2021/01/22 11:58:53;;;;;;;;;;;14.10;99.90;;;;;;5055007;28;19956;-63
2021/01/22 12:01:19;;;;;;;;;;;14.20;99.90;;;;;;5053665;28;19978;-64
2021/01/22 12:03:46;;;;;;;;;;;14.40;99.90;;;;;;5053636;28;20338;-63
2021/01/22 12:06:12;;;;;;;;;;;14.50;99.90;;;;;;5053828;28;19932;-64
2021/01/22 12:08:38;;;;;;;;;;;14.50;99.90;;;;;;5053550;28;19925;-64
2021/01/22 12:11:04;;;;;;;;;;;14.40;99.90;;;;;;5053670;28;19929;-64
2021/01/22 12:13:30;;;;;;;;;;;14.40;99.90;;;;;;5053657;28;19924;-64
2021/01/22 12:15:56;;;;;;;;;;;14.40;99.90;;;;;;5053600;28;19925;-62
2021/01/22 12:18:22;;;;;;;;;;;14.30;99.90;;;;;;5053939;28;19925;-64
2021/01/22 12:20:49;;;;;;;;;;;14.30;99.90;;;;;;5053898;28;19975;-64
2021/01/22 12:23:15;;;;;;;;;;;14.30;99.90;;;;;;5053483;28;19931;-62
2021/01/22 12:25:45;;;;;;;;;;;14.20;99.90;;;;;;5053395;28;19925;-64
2021/01/22 12:28:11;;;;;;;;;;;14.20;99.90;;;;;;5054061;28;19925;-64
2021/01/22 12:30:37;;;;;;;;;;;14.20;99.90;;;;;;5056928;28;20310;-63
2021/01/22 12:33:03;;;;;;;;;;;14.10;99.90;;;;;;5056770;28;19925;-63
2021/01/22 12:35:29;;;;;;;;;;;14.20;99.90;;;;;;5056983;28;19933;-64
2021/01/22 12:37:56;;;;;;;;;;;14.30;99.90;;;;;;5057189;28;19940;-63
2021/01/22 12:40:22;;;;;;;;;;;14.40;99.90;;;;;;5056794;28;19935;-64
2021/01/22 12:42:48;;;;;;;;;;;14.50;99.90;;;;;;5057408;28;19926;-63
2021/01/22 12:45:15;;;;;;;;;;;14.70;99.90;;;;;;5056960;28;19925;-63
2021/01/22 12:47:41;;;;;;;;;;;14.70;99.90;;;;;;5056779;28;20395;-63
2021/01/22 12:50:08;;;;;;;;;;;14.70;99.90;;;;;;5056772;28;19925;-64
2021/01/22 12:52:34;;;;;;;;;;;14.70;99.90;;;;;;5056216;28;19924;-63
2021/01/22 12:55:00;;;;;;;;;;;14.70;99.90;;;;;;5056920;28;19925;-62
2021/01/22 12:57:27;;;;;;;;;;;14.50;99.90;;;;;;5057016;28;20380;-62
2021/01/22 12:59:53;;;;;;;;;;;14.60;99.90;;;;;;5057519;28;19928;-64
2021/01/22 13:02:19;;;;;;;;;;;14.50;99.90;;;;;;5056455;28;20403;-64
2021/01/22 13:04:45;;;;;;;;;;;14.50;99.90;;;;;;5056294;28;19932;-63
2021/01/22 13:07:11;;;;;;;;;;;14.40;99.90;;;;;;5056286;28;19984;-65
2021/01/22 13:09:37;;;;;;;;;;;14.40;99.90;;;;;;5056168;28;19925;-63
2021/01/22 13:12:05;;;;;;;;;;;14.50;99.90;;;;;;5056044;28;20339;-63
2021/01/22 13:14:31;;;;;;;;;;;14.50;99.90;;;;;;5056370;28;19925;-61
2021/01/22 13:16:57;;;;;;;;;;;14.50;99.90;;;;;;5056336;28;19929;-63
2021/01/22 13:19:23;;;;;;;;;;;14.50;99.90;;;;;;5056383;28;19940;-62
2021/01/22 13:21:49;;;;;;;;;;;14.60;99.90;;;;;;5056192;28;19936;-62
2021/01/22 13:24:15;;;;;;;;;;;14.70;99.90;;;;;;5055542;28;19932;-62
2021/01/22 13:26:41;;;;;;;;;;;14.70;99.90;;;;;;5055298;28;20315;-62
2021/01/22 13:29:08;;;;;;;;;;;14.50;99.90;;;;;;5056461;28;19924;-61
2021/01/22 13:31:34;;;;;;;;;;;14.00;99.90;;;;;;5056165;28;19925;-61
2021/01/22 13:34:00;;;;;;;;;;;13.50;99.90;;;;;;5055780;28;19924;-62
2021/01/22 13:36:26;;;;;;;;;;;13.00;99.90;;;;;;5055276;28;20391;-63
2021/01/22 13:38:52;;;;;;;;;;;12.70;99.90;;;;;;5055589;28;19924;-63
2021/01/22 13:41:18;;;;;;;;;;;12.40;99.90;;;;;;5055752;28;19924;-62
2021/01/22 13:43:44;;;;;;;;;;;12.00;99.90;;;;;;5055525;28;19932;-63
2021/01/22 13:46:11;;;;;;;;;;;11.80;99.90;;;;;;5055431;28;19925;-63
2021/01/22 13:48:37;;;;;;;;;;;11.60;99.90;;;;;;5055461;28;19928;-62
2021/01/22 13:51:04;;;;;;;;;;;11.50;99.90;;;;;;5055429;28;19970;-63
2021/01/22 13:53:30;;;;;;;;;;;11.20;99.90;;;;;;5055743;28;19925;-63
2021/01/22 13:55:56;;;;;;;;;;;10.90;99.90;;;;;;5054865;28;19971;-63
2021/01/22 13:58:22;;;;;;;;;;;10.70;99.90;;;;;;5055155;28;19968;-63
2021/01/22 14:00:48;;;;;;;;;;;10.50;99.90;;;;;;5055487;28;19975;-62
2021/01/22 14:03:15;;;;;;;;;;;10.40;99.90;;;;;;5056237;28;19929;-62
2021/01/22 14:05:41;;;;;;;;;;;10.10;99.90;;;;;;5056685;28;20334;-62
2021/01/22 14:08:07;;;;;;;;;;;9.90;99.90;;;;;;5055393;28;19925;-62
2021/01/22 14:10:33;;;;;;;;;;;9.80;99.90;;;;;;5054982;28;19990;-61
2021/01/22 14:12:59;;;;;;;;;;;9.70;99.90;;;;;;5054835;28;19952;-60
2021/01/22 14:15:25;;;;;;;;;;;9.60;99.90;;;;;;5054878;28;19932;-62
2021/01/22 14:17:51;;;;;;;;;;;9.60;99.90;;;;;;5055441;28;19932;-62
2021/01/22 14:20:18;;;;;;;;;;;9.60;99.90;;;;;;5054774;28;19925;-63
2021/01/22 14:22:44;;;;;;;;;;;9.60;99.90;;;;;;5054608;28;19924;-63
2021/01/22 14:25:10;;;;;;;;;;;9.60;99.90;;;;;;5054832;28;19925;-62
2021/01/22 14:27:36;;;;;;;;;;;9.60;99.90;;;;;;5057120;28;20410;-61
2021/01/22 14:30:03;;;;;;;;;;;9.60;99.90;;;;;;5057142;28;19925;-62
2021/01/22 14:32:29;;;;;;;;;;;9.60;99.90;;;;;;5057323;28;19929;-62
2021/01/22 14:34:55;;;;;;;;;;;9.40;99.90;;;;;;5057256;28;19931;-62
2021/01/22 14:37:23;;;;;;;;;;;9.10;99.90;;;;;;5056940;28;21222;-62
2021/01/22 14:39:49;;;;;;;;;;;9.00;99.90;;;;;;5055597;28;19933;-63
2021/01/22 14:42:15;;;;;;;;;;;8.80;99.90;;;;;;5054281;28;20283;-61
2021/01/22 14:44:41;;;;;;;;;;;8.50;99.90;;;;;;5054497;28;19940;-62
2021/01/22 14:47:07;;;;;;;;;;;8.40;99.90;;;;;;5054475;28;19932;-62
2021/01/22 14:49:33;;;;;;;;;;;8.30;99.90;;;;;;5054517;28;19925;-62
2021/01/22 14:51:59;;;;;;;;;;;8.20;99.90;;;;;;5053906;28;19929;-62
2021/01/22 14:54:26;;;;;;;;;;;8.20;99.90;;;;;;5054314;28;20334;-62
2021/01/22 14:56:52;;;;;;;;;;;8.00;99.90;;;;;;5054243;28;19925;-62
2021/01/22 14:59:18;;;;;;;;;;;7.90;99.90;;;;;;5053850;28;20383;-62
2021/01/22 15:01:44;;;;;;;;;;;7.70;99.90;;;;;;5053697;28;20299;-62
2021/01/22 15:04:10;;;;;;;;;;;7.70;99.90;;;;;;5053957;28;19936;-62
2021/01/22 15:06:36;;;;;;;;;;;7.60;99.90;;;;;;5053491;28;20407;-62
2021/01/22 15:09:02;;;;;;;;;;;7.60;99.90;;;;;;5053753;28;19929;-62
2021/01/22 15:11:29;;;;;;;;;;;7.60;99.90;;;;;;5053784;28;19924;-62
2021/01/22 15:13:55;;;;;;;;;;;7.40;99.90;;;;;;5053739;28;19925;-62
2021/01/22 15:16:21;;;;;;;;;;;7.30;99.90;;;;;;5053701;28;19924;-62
2021/01/22 15:18:47;;;;;;;;;;;7.20;99.90;;;;;;5053661;28;20323;-62
2021/01/22 15:21:13;;;;;;;;;;;7.20;99.90;;;;;;5053758;28;20391;-62
2021/01/22 15:23:42;;;;;;;;;;;7.10;99.90;;;;;;5054136;28;20134;-62
2021/01/22 15:26:08;;;;;;;;;;;7.10;99.90;;;;;;5054158;28;20007;-62
2021/01/22 15:28:35;;;;;;;;;;;7.20;99.90;;;;;;5054482;28;19924;-62
2021/01/22 15:31:01;;;;;;;;;;;7.20;99.90;;;;;;5053943;28;19925;-62
2021/01/22 15:33:27;;;;;;;;;;;7.30;99.90;;;;;;5053844;28;19928;-61
2021/01/22 15:35:53;;;;;;;;;;;7.40;99.90;;;;;;5054156;28;20045;-62
2021/01/22 15:38:19;;;;;;;;;;;7.40;99.90;;;;;;5053718;28;20310;-61
2021/01/22 15:40:45;;;;;;;;;;;7.10;99.90;;;;;;5053326;28;20388;-62
2021/01/22 15:43:11;;;;;;;;;;;7.10;99.90;;;;;;5053343;28;20284;-61
2021/01/22 15:45:38;;;;;;;;;;;7.00;99.90;;;;;;5052917;28;19925;-63
2021/01/22 15:48:05;;;;;;;;;;;7.10;99.90;;;;;;5055144;28;19924;-63
2021/01/22 15:50:31;;;;;;;;;;;7.00;99.90;;;;;;5053260;28;19925;-62
2021/01/22 15:52:57;;;;;;;;;;;7.10;99.90;;;;;;5053123;28;19998;-63
2021/01/22 15:55:23;;;;;;;;;;;7.10;99.90;;;;;;5052618;28;20264;-61
2021/01/22 15:57:49;;;;;;;;;;;6.90;99.90;;;;;;5053803;28;19931;-61
2021/01/22 16:00:15;;;;;;;;;;;6.90;99.90;;;;;;5053073;28;19932;-62
2021/01/22 16:02:43;;;;;;;;;;;6.90;99.90;;;;;;5053143;28;19932;-62
2021/01/22 16:05:09;;;;;;;;;;;6.90;99.90;;;;;;5057133;28;20007;-62
2021/01/22 16:07:36;;;;;;;;;;;6.90;99.90;;;;;;5056896;28;19924;-62
2021/01/22 16:10:02;;;;;;;;;;;7.00;99.90;;;;;;5057783;28;19925;-62
2021/01/22 16:12:28;;;;;;;;;;;7.00;99.90;;;;;;5056717;28;19928;-62
2021/01/22 16:14:54;;;;;;;;;;;6.90;99.90;;;;;;5056802;28;19932;-62
2021/01/22 16:17:20;;;;;;;;;;;6.80;99.90;;;;;;5056536;28;20318;-61
2021/01/22 16:19:47;;;;;;;;;;;6.80;99.90;;;;;;5056845;28;19925;-62
2021/01/22 16:22:13;;;;;;;;;;;6.90;99.90;;;;;;5057016;28;19932;-63
2021/01/22 16:24:39;;;;;;;;;;;6.80;99.90;;;;;;5056678;28;19982;-61
2021/01/22 16:27:05;;;;;;;;;;;6.70;99.90;;;;;;5056544;28;19928;-63
2021/01/22 16:29:31;;;;;;;;;;;6.60;99.90;;;;;;5056724;28;19931;-61
2021/01/22 16:31:59;;;;;;;;;;;6.60;99.90;;;;;;5056580;28;19931;-61
2021/01/22 16:34:25;;;;;;;;;;;6.60;99.90;;;;;;5056706;28;19925;-61
2021/01/22 16:36:51;;;;;;;;;;;6.50;99.90;;;;;;5056667;28;19925;-61
2021/01/22 16:39:18;;;;;;;;;;;6.40;99.90;;;;;;5056973;28;19983;-63
2021/01/22 16:41:44;;;;;;;;;;;6.40;99.90;;;;;;5056288;28;20426;-63
2021/01/22 16:44:10;;;;;;;;;;;6.50;99.90;;;;;;5056475;28;19959;-62
2021/01/22 16:46:36;;;;;;;;;;;6.50;99.90;;;;;;5056400;28;20303;-63
2021/01/22 16:49:02;;;;;;;;;;;6.30;99.90;;;;;;5056653;28;20395;-62
2021/01/22 16:51:28;;;;;;;;;;;6.20;99.90;;;;;;5056629;28;19947;-62
2021/01/22 16:53:55;;;;;;;;;;;6.30;99.90;;;;;;5056902;28;20277;-62
2021/01/22 16:56:21;;;;;;;;;;;6.10;99.90;;;;;;5057431;28;19940;-62
2021/01/22 16:58:47;;;;;;;;;;;6.10;99.90;;;;;;5057395;28;19929;-62
2021/01/22 17:01:13;;;;;;;;;;;6.10;99.90;;;;;;5056798;28;19939;-62
2021/01/22 17:03:39;;;;;;;;;;;6.10;99.90;;;;;;5059096;28;19920;-62
2021/01/22 17:06:05;;;;;;;;;;;6.10;99.90;;;;;;5057222;28;19921;-62
2021/01/22 17:08:31;;;;;;;;;;;6.20;99.90;;;;;;5056276;28;20376;-61
2021/01/22 17:10:58;;;;;;;;;;;6.20;99.90;;;;;;5056426;28;19927;-62
2021/01/22 17:13:24;;;;;;;;;;;6.10;99.90;;;;;;5056395;28;19920;-62
2021/01/22 17:15:50;;;;;;;;;;;6.00;99.90;;;;;;5055563;28;19932;-62
2021/01/22 17:18:16;;;;;;;;;;;6.00;99.90;;;;;;5056069;28;19928;-62
2021/01/22 17:20:42;;;;;;;;;;;6.00;99.90;;;;;;5056391;28;19920;-62
2021/01/22 17:23:08;;;;;;;;;;;6.00;99.90;;;;;;5056069;28;19928;-61
2021/01/22 17:25:34;;;;;;;;;;;6.10;99.90;;;;;;5056213;28;19928;-62
2021/01/22 17:28:01;;;;;;;;;;;6.10;99.90;;;;;;5055628;28;19931;-62
2021/01/22 17:30:28;;;;;;;;;;;6.20;99.90;;;;;;5055998;28;19921;-62
2021/01/22 17:32:54;;;;;;;;;;;6.30;99.90;;;;;;5055977;28;20315;-62
2021/01/22 17:35:21;;;;;;;;;;;6.30;99.90;;;;;;5055511;28;19920;-63
2021/01/22 17:37:47;;;;;;;;;;;6.50;99.90;;;;;;5055159;28;19921;-62
2021/01/22 17:40:13;;;;;;;;;;;6.50;99.90;;;;;;5055496;28;19924;-62
2021/01/22 17:42:39;;;;;;;;;;;6.50;99.90;;;;;;5055093;28;19925;-62
2021/01/22 17:45:07;;;;;;;;;;;6.50;99.90;;;;;;5055182;28;20391;-62
2021/01/22 17:47:33;;;;;;;;;;;6.60;99.90;;;;;;5058715;28;19928;-62
2021/01/22 17:49:59;;;;;;;;;;;6.50;99.90;;;;;;5059449;28;20300;-62
2021/01/22 17:52:25;;;;;;;;;;;6.60;99.90;;;;;;5055228;28;20394;-62
2021/01/22 17:54:52;;;;;;;;;;;6.60;99.90;;;;;;5055479;28;20046;-62
2021/01/22 17:57:18;;;;;;;;;;;6.40;99.90;;;;;;5055854;28;20268;-62
2021/01/22 17:59:44;;;;;;;;;;;6.50;99.90;;;;;;5056492;28;19928;-64
2021/01/22 18:02:11;;;;;;;;;;;6.50;99.90;;;;;;5056027;28;19921;-63
2021/01/22 18:04:37;;;;;;;;;;;6.40;99.90;;;;;;5057051;28;19925;-62
2021/01/22 18:07:03;;;;;;;;;;;6.40;99.90;;;;;;5057681;28;19921;-63
2021/01/22 18:09:29;;;;;;;;;;;6.50;99.90;;;;;;5057001;28;20383;-63
2021/01/22 18:11:56;;;;;;;;;;;6.60;99.90;;;;;;5056628;28;19920;-62
2021/01/22 18:14:22;;;;;;;;;;;6.60;99.90;;;;;;5055996;28;19921;-63
2021/01/22 18:16:48;;;;;;;;;;;6.50;99.90;;;;;;5055779;28;19920;-62
2021/01/22 18:19:15;;;;;;;;;;;6.50;99.90;;;;;;5055558;28;20390;-63
2021/01/22 18:21:41;;;;;;;;;;;6.40;99.90;;;;;;5055569;28;19920;-62
2021/01/22 18:24:08;;;;;;;;;;;6.40;99.90;;;;;;5055599;28;19920;-63
2021/01/22 18:26:35;;;;;;;;;;;6.40;99.90;;;;;;5054448;28;19933;-62
2021/01/22 18:29:02;;;;;;;;;;;6.30;99.90;;;;;;5055339;28;20038;-63
2021/01/22 18:31:28;;;;;;;;;;;6.40;99.90;;;;;;5055469;28;20265;-64
2021/01/22 18:33:54;;;;;;;;;;;6.40;99.90;;;;;;5055066;28;19924;-63
2021/01/22 18:36:21;;;;;;;;;;;6.40;99.90;;;;;;5055118;28;19927;-63
2021/01/22 18:38:47;;;;;;;;;;;6.40;99.90;;;;;;5055127;28;19921;-63
2021/01/22 18:41:13;;;;;;;;;;;6.30;99.90;;;;;;5055435;28;19920;-64
2021/01/22 18:43:39;;;;;;;;;;;6.20;99.90;;;;;;5055723;28;19975;-63
2021/01/22 18:46:05;;;;;;;;;;;6.30;99.90;;;;;;5055414;28;19928;-63
2021/01/22 18:48:31;;;;;;;;;;;6.30;99.90;;;;;;5055809;28;19920;-63
2021/01/22 18:50:57;;;;;;;;;;;6.40;99.90;;;;;;5055514;28;19928;-63
2021/01/22 18:53:24;;;;;;;;;;;6.50;99.90;;;;;;5055954;28;19920;-62
2021/01/22 18:55:50;;;;;;;;;;;6.30;99.90;;;;;;5055855;28;19928;-62
2021/01/22 18:58:16;;;;;;;;;;;6.40;99.90;;;;;;5055324;28;20368;-63
2021/01/22 19:00:42;;;;;;;;;;;6.50;99.90;;;;;;5056160;28;19927;-62
2021/01/22 19:03:08;;;;;;;;;;;6.40;99.90;;;;;;5056569;28;19928;-64
2021/01/22 19:05:34;;;;;;;;;;;6.50;99.90;;;;;;5055322;28;19921;-63
2021/01/22 19:08:00;;;;;;;;;;;6.50;99.90;;;;;;5055282;28;19927;-62
2021/01/22 19:10:27;;;;;;;;;;;6.50;99.90;;;;;;5055336;28;19921;-63
2021/01/22 19:12:53;;;;;;;;;;;6.60;99.90;;;;;;5055258;28;19928;-62
2021/01/22 19:15:19;;;;;;;;;;;6.50;99.90;;;;;;5055288;28;19925;-63
2021/01/22 19:17:45;;;;;;;;;;;6.50;99.90;;;;;;5055547;28;19920;-62
2021/01/22 19:20:12;;;;;;;;;;;6.50;99.90;;;;;;5055945;28;19921;-63
2021/01/22 19:22:38;;;;;;;;;;;6.40;99.90;;;;;;5055014;28;20264;-63